Time,TemperatureF,DewpointF,PressureIn,WindDirection,WindDirectionDegrees,WindSpeedMPH,WindSpeedGustMPH,Humidity,HourlyPrecipIn,Conditions,Clouds,dailyrainin,SoftwareType,DateUTC
2013-06-23 00:07:00,55.0,43.9,29.75,WNW,292,0.0,-999.0,66,-99.99,,,0.00,Acu-Link.com,2013-06-23 08:07:00,
2013-06-23 00:22:00,54.3,44.0,29.75,WNW,292,0.0,-999.0,68,-99.99,,,0.00,Acu-Link.com,2013-06-23 08:22:00,
2013-06-23 00:37:00,53.4,43.5,29.74,WNW,292,0.0,-999.0,69,-99.99,,,0.00,Acu-Link.com,2013-06-23 08:37:00,
2013-06-23 00:52:00,52.5,43.0,29.74,WNW,292,0.0,-999.0,70,-99.99,,,0.00,Acu-Link.com,2013-06-23 08:52:00,
2013-06-23 01:08:00,51.6,42.5,29.75,WNW,292,0.0,-999.0,71,-99.99,,,0.00,Acu-Link.com,2013-06-23 09:08:00,
2013-06-23 01:23:00,50.7,42.0,29.75,WNW,292,0.0,-999.0,72,-99.99,,,0.00,Acu-Link.com,2013-06-23 09:23:00,
2013-06-23 01:38:00,50.2,41.5,29.75,WNW,292,0.0,-999.0,72,-99.99,,,0.00,Acu-Link.com,2013-06-23 09:38:00,
2013-06-23 01:53:00,50.0,41.3,29.74,East,90,0.0,-999.0,72,-99.99,,,0.00,Acu-Link.com,2013-06-23 09:53:00,
2013-06-23 02:08:00,49.6,41.7,29.74,East,90,0.0,-999.0,74,-99.99,,,0.00,Acu-Link.com,2013-06-23 10:08:00,
2013-06-23 02:23:00,48.7,41.1,29.75,East,90,0.0,-999.0,75,-99.99,,,0.00,Acu-Link.com,2013-06-23 10:23:00,
2013-06-23 02:38:00,48.4,40.8,29.74,East,90,0.0,-999.0,75,-99.99,,,0.00,Acu-Link.com,2013-06-23 10:38:00,
2013-06-23 02:53:00,48.0,41.1,29.75,East,90,0.0,-999.0,77,-99.99,,,0.00,Acu-Link.com,2013-06-23 10:53:00,
2013-06-23 03:08:00,47.3,40.8,29.76,East,90,0.0,-999.0,78,-99.99,,,0.00,Acu-Link.com,2013-06-23 11:08:00,
2013-06-23 03:24:00,46.9,40.7,29.75,East,90,0.0,-999.0,79,-99.99,,,0.00,Acu-Link.com,2013-06-23 11:24:00,
2013-06-23 03:39:00,46.8,40.6,29.75,East,90,0.0,-999.0,79,-99.99,,,0.00,Acu-Link.com,2013-06-23 11:39:00,
2013-06-23 03:54:00,46.6,40.8,29.75,East,90,0.0,-999.0,80,-99.99,,,0.00,Acu-Link.com,2013-06-23 11:54:00,
2013-06-23 04:09:00,46.6,40.4,29.76,East,90,0.0,-999.0,79,-99.99,,,0.00,Acu-Link.com,2013-06-23 12:09:00,
2013-06-23 04:24:00,46.6,40.8,29.75,East,90,0.0,-999.0,80,-99.99,,,0.00,Acu-Link.com,2013-06-23 12:24:00,
2013-06-23 04:39:00,46.9,41.1,29.75,East,90,0.0,-999.0,80,-99.99,,,0.00,Acu-Link.com,2013-06-23 12:39:00,
2013-06-23 04:54:00,47.3,41.1,29.75,East,90,0.0,-999.0,79,-99.99,,,0.00,Acu-Link.com,2013-06-23 12:54:00,
2013-06-23 05:09:00,48.6,42.1,29.75,East,90,0.0,-999.0,78,-99.99,,,0.00,Acu-Link.com,2013-06-23 13:09:00,
2013-06-23 05:24:00,48.9,42.3,29.75,NE,45,0.0,-999.0,78,-99.99,,,0.00,Acu-Link.com,2013-06-23 13:24:00,
2013-06-23 05:40:00,49.3,42.7,29.75,NE,45,0.0,-999.0,78,-99.99,,,0.00,Acu-Link.com,2013-06-23 13:40:00,
2013-06-23 05:55:00,49.8,43.9,29.75,NE,45,0.0,-999.0,80,-99.99,,,0.00,Acu-Link.com,2013-06-23 13:55:00,
2013-06-23 06:10:00,50.9,45.0,29.75,NE,45,0.0,-999.0,80,-99.99,,,0.00,Acu-Link.com,2013-06-23 14:10:00,
2013-06-23 06:25:00,52.0,45.4,29.76,NE,45,0.0,-999.0,78,-99.99,,,0.00,Acu-Link.com,2013-06-23 14:25:00,
2013-06-23 06:40:00,52.9,43.8,29.76,NE,45,0.0,-999.0,71,-99.99,,,0.00,Acu-Link.com,2013-06-23 14:40:00,
2013-06-23 06:55:00,54.7,43.6,29.76,NE,45,0.0,-999.0,66,-99.99,,,0.00,Acu-Link.com,2013-06-23 14:55:00,
2013-06-23 07:29:00,55.9,45.5,29.76,NE,45,0.0,-999.0,68,-99.99,,,0.00,Acu-Link.com,2013-06-23 15:29:00,
2013-06-23 07:44:00,63.9,45.9,29.75,NE,45,0.0,-999.0,52,-99.99,,,0.00,Acu-Link.com,2013-06-23 15:44:00,
2013-06-23 07:59:00,67.1,46.2,29.75,NE,45,0.0,-999.0,47,-99.99,,,0.00,Acu-Link.com,2013-06-23 15:59:00,
2013-06-23 08:15:00,69.4,45.3,29.74,NE,45,0.0,-999.0,42,-99.99,,,0.00,Acu-Link.com,2013-06-23 16:15:00,
2013-06-23 08:30:00,72.1,46.4,29.74,SSE,157,0.0,-999.0,40,-99.99,,,0.00,Acu-Link.com,2013-06-23 16:30:00,
2013-06-23 08:45:00,74.1,47.5,29.75,WSW,247,0.0,-999.0,39,-99.99,,,0.00,Acu-Link.com,2013-06-23 16:45:00,
2013-06-23 09:15:00,75.6,47.5,29.74,SSE,157,0.0,-999.0,37,-99.99,,,0.00,Acu-Link.com,2013-06-23 17:15:00,
2013-06-23 09:30:00,72.9,48.4,29.74,SW,225,0.0,-999.0,42,-99.99,,,0.00,Acu-Link.com,2013-06-23 17:30:00,
2013-06-23 09:46:00,73.9,49.3,29.73,WSW,247,0.0,-999.0,42,-99.99,,,0.00,Acu-Link.com,2013-06-23 17:46:00,
2013-06-23 10:01:00,75.0,49.0,29.74,West,270,1.7,-999.0,40,-99.99,,,0.00,Acu-Link.com,2013-06-23 18:01:00,
2013-06-23 10:16:00,71.4,48.9,29.73,South,180,2.2,-999.0,45,-99.99,,,0.00,Acu-Link.com,2013-06-23 18:16:00,
2013-06-23 10:31:00,73.0,49.2,29.72,ESE,112,0.0,-999.0,43,-99.99,,,0.00,Acu-Link.com,2013-06-23 18:31:00,
2013-06-23 10:46:00,74.1,48.9,29.72,SSW,202,0.0,-999.0,41,-99.99,,,0.00,Acu-Link.com,2013-06-23 18:46:00,
2013-06-23 11:01:00,74.8,50.2,29.71,NNW,337,0.0,-999.0,42,-99.99,,,0.00,Acu-Link.com,2013-06-23 19:01:00,
2013-06-23 11:17:00,75.9,51.1,29.71,East,90,0.0,-999.0,42,-99.99,,,0.00,Acu-Link.com,2013-06-23 19:17:00,
2013-06-23 11:32:00,75.9,50.5,29.71,East,90,0.0,-999.0,41,-99.99,,,0.00,Acu-Link.com,2013-06-23 19:32:00,
2013-06-23 11:47:00,77.0,50.1,29.70,ESE,112,0.0,-999.0,39,-99.99,,,0.00,Acu-Link.com,2013-06-23 19:47:00,
2013-06-23 12:02:00,77.4,50.5,29.69,East,90,2.7,-999.0,39,-99.99,,,0.00,Acu-Link.com,2013-06-23 20:02:00,
2013-06-23 12:17:00,79.0,51.9,29.70,WSW,247,0.0,-999.0,39,-99.99,,,0.00,Acu-Link.com,2013-06-23 20:17:00,
2013-06-23 12:32:00,78.4,50.7,29.69,WSW,247,0.0,-999.0,38,-99.99,,,0.00,Acu-Link.com,2013-06-23 20:32:00,
2013-06-23 12:48:00,77.9,50.2,29.68,West,270,1.7,-999.0,38,-99.99,,,0.00,Acu-Link.com,2013-06-23 20:48:00,
2013-06-23 13:03:00,79.3,47.7,29.68,SW,225,1.7,-999.0,33,-99.99,,,0.00,Acu-Link.com,2013-06-23 21:03:00,
2013-06-23 13:18:00,79.7,48.0,29.68,WNW,292,3.2,-999.0,33,-99.99,,,0.00,Acu-Link.com,2013-06-23 21:18:00,
2013-06-23 13:33:00,79.9,47.4,29.68,NNW,337,2.7,-999.0,32,-99.99,,,0.00,Acu-Link.com,2013-06-23 21:33:00,
2013-06-23 13:48:00,81.9,48.3,29.67,SW,225,3.2,-999.0,31,-99.99,,,0.00,Acu-Link.com,2013-06-23 21:48:00,
2013-06-23 14:03:00,82.2,45.8,29.67,ENE,67,1.7,-999.0,28,-99.99,,,0.00,Acu-Link.com,2013-06-23 22:03:00,
2013-06-23 14:18:00,81.7,46.3,29.67,ESE,112,3.2,-999.0,29,-99.99,,,0.00,Acu-Link.com,2013-06-23 22:18:00,
2013-06-23 14:33:00,82.0,42.7,29.67,SSW,202,2.7,-999.0,25,-99.99,,,0.00,Acu-Link.com,2013-06-23 22:33:00,
2013-06-23 14:48:00,81.5,48.8,29.67,North,0,4.7,-999.0,32,-99.99,,,0.00,Acu-Link.com,2013-06-23 22:48:00,
2013-06-23 15:03:00,80.8,46.4,29.66,WNW,292,6.8,-999.0,30,-99.99,,,0.00,Acu-Link.com,2013-06-23 23:03:00,
2013-06-23 15:19:00,81.9,47.4,29.66,North,0,4.2,-999.0,30,-99.99,,,0.00,Acu-Link.com,2013-06-23 23:19:00,
2013-06-23 15:34:00,81.9,44.6,29.65,WSW,247,4.2,-999.0,27,-99.99,,,0.00,Acu-Link.com,2013-06-23 23:34:00,
2013-06-23 15:49:00,82.0,47.5,29.65,WNW,292,2.2,-999.0,30,-99.99,,,0.00,Acu-Link.com,2013-06-23 23:49:00,
2013-06-23 16:05:00,81.3,46.0,29.65,NNW,337,2.7,-999.0,29,-99.99,,,0.00,Acu-Link.com,2013-06-24 00:05:00,
2013-06-23 16:20:00,82.2,45.8,29.65,NE,45,4.2,-999.0,28,-99.99,,,0.00,Acu-Link.com,2013-06-24 00:20:00,
2013-06-23 16:35:00,81.7,44.4,29.64,SSW,202,1.7,-999.0,27,-99.99,,,0.00,Acu-Link.com,2013-06-24 00:35:00,
2013-06-23 16:50:00,81.9,45.6,29.64,WNW,292,2.7,-999.0,28,-99.99,,,0.00,Acu-Link.com,2013-06-24 00:50:00,
2013-06-23 17:05:00,82.4,45.0,29.64,ESE,112,4.7,-999.0,27,-99.99,,,0.00,Acu-Link.com,2013-06-24 01:05:00,
2013-06-23 17:20:00,83.5,45.0,29.64,West,270,3.2,-999.0,26,-99.99,,,0.00,Acu-Link.com,2013-06-24 01:20:00,
2013-06-23 17:35:00,84.2,44.5,29.63,SE,135,2.2,-999.0,25,-99.99,,,0.00,Acu-Link.com,2013-06-24 01:35:00,
2013-06-23 17:50:00,83.7,41.9,29.63,WNW,292,1.7,-999.0,23,-99.99,,,0.00,Acu-Link.com,2013-06-24 01:50:00,
2013-06-23 18:05:00,82.9,41.3,29.62,SSW,202,0.0,-999.0,23,-99.99,,,0.00,Acu-Link.com,2013-06-24 02:05:00,
2013-06-23 18:21:00,83.1,41.4,29.62,WNW,292,5.8,-999.0,23,-99.99,,,0.00,Acu-Link.com,2013-06-24 02:21:00,
2013-06-23 18:36:00,83.1,42.5,29.63,ESE,112,3.7,-999.0,24,-99.99,,,0.00,Acu-Link.com,2013-06-24 02:36:00,
2013-06-23 18:51:00,83.3,42.7,29.62,SW,225,3.2,-999.0,24,-99.99,,,0.00,Acu-Link.com,2013-06-24 02:51:00,
2013-06-23 19:06:00,82.2,45.8,29.61,WNW,292,5.8,-999.0,28,-99.99,,,0.00,Acu-Link.com,2013-06-24 03:06:00,
2013-06-23 19:21:00,81.5,46.2,29.61,WSW,247,5.8,-999.0,29,-99.99,,,0.00,Acu-Link.com,2013-06-24 03:21:00,
2013-06-23 19:36:00,81.5,45.2,29.62,South,180,5.8,-999.0,28,-99.99,,,0.00,Acu-Link.com,2013-06-24 03:36:00,
2013-06-23 19:52:00,81.7,46.3,29.61,West,270,2.2,-999.0,29,-99.99,,,0.00,Acu-Link.com,2013-06-24 03:52:00,
2013-06-23 20:07:00,81.3,50.2,29.62,West,270,1.7,-999.0,34,-99.99,,,0.00,Acu-Link.com,2013-06-24 04:07:00,
2013-06-23 20:22:00,80.2,50.8,29.63,ESE,112,3.2,-999.0,36,-99.99,,,0.00,Acu-Link.com,2013-06-24 04:22:00,
2013-06-23 20:37:00,79.2,51.4,29.63,ESE,112,1.1,-999.0,38,-99.99,,,0.00,Acu-Link.com,2013-06-24 04:37:00,
2013-06-23 20:52:00,81.1,50.8,29.63,SE,135,2.7,-999.0,35,-99.99,,,0.00,Acu-Link.com,2013-06-24 04:52:00,
2013-06-23 21:07:00,81.3,51.0,29.63,West,270,5.3,-999.0,35,-99.99,,,0.00,Acu-Link.com,2013-06-24 05:07:00,
2013-06-23 21:22:00,81.5,51.2,29.63,West,270,3.2,-999.0,35,-99.99,,,0.00,Acu-Link.com,2013-06-24 05:22:00,
2013-06-23 21:38:00,79.3,50.7,29.63,WNW,292,4.2,-999.0,37,-99.99,,,0.00,Acu-Link.com,2013-06-24 05:38:00,
2013-06-23 21:53:00,78.3,50.6,29.64,NNW,337,2.7,-999.0,38,-99.99,,,0.00,Acu-Link.com,2013-06-24 05:53:00,
2013-06-23 22:08:00,77.9,50.2,29.64,NNW,337,3.2,-999.0,38,-99.99,,,0.00,Acu-Link.com,2013-06-24 06:08:00,
2013-06-23 22:23:00,77.4,49.8,29.64,NNE,22,1.7,-999.0,38,-99.99,,,0.00,Acu-Link.com,2013-06-24 06:23:00,
2013-06-23 22:38:00,74.5,49.2,29.64,NE,45,0.0,-999.0,41,-99.99,,,0.00,Acu-Link.com,2013-06-24 06:38:00,
2013-06-23 22:53:00,71.6,48.5,29.64,WNW,292,2.2,-999.0,44,-99.99,,,0.00,Acu-Link.com,2013-06-24 06:53:00,
2013-06-23 23:38:00,66.4,49.2,29.64,SE,135,0.0,-999.0,54,-99.99,,,0.00,Acu-Link.com,2013-06-24 07:38:00,